Time;durP1;ratioP1;P1;durP2;ratioP2;P2;SDS_P1;SDS_P2;PMS_P1;PMS_P2;Temp;Humidity;BMP_temperature;BMP_pressure;BME280_temperature;BME280_humidity;BME280_pressure;Samples;Min_cycle;Max_cycle;Signal;HPM_P1;HPM_P2
2022/07/16 00:02:43;;;;;;;1.75;0.57;;;20.80;63.70;;;;;;5073973;28;20032;-72
2022/07/16 00:05:08;;;;;;;1.50;0.50;;;20.70;64.40;;;;;;5074138;28;20020;-72
2022/07/16 00:07:34;;;;;;;1.70;0.50;;;20.70;64.60;;;;;;5074366;28;20036;-72
2022/07/16 00:10:00;;;;;;;1.30;0.40;;;20.60;64.90;;;;;;5074397;28;20095;-72
2022/07/16 00:12:26;;;;;;;1.30;0.40;;;20.50;65.10;;;;;;5074234;28;20029;-72
2022/07/16 00:14:52;;;;;;;2.70;0.50;;;20.40;65.40;;;;;;5073518;28;20024;-72
2022/07/16 00:17:18;;;;;;;1.67;0.65;;;20.30;65.70;;;;;;5073805;28;20387;-72
2022/07/16 00:19:43;;;;;;;2.25;0.60;;;20.30;66.30;;;;;;5074158;28;20020;-72
2022/07/16 00:22:09;;;;;;;2.20;0.43;;;20.20;66.60;;;;;;5074032;28;20032;-72
2022/07/16 00:24:35;;;;;;;1.63;0.88;;;20.10;66.80;;;;;;5073827;28;20021;-72
2022/07/16 00:27:01;;;;;;;2.53;0.47;;;20.10;67.10;;;;;;5073877;28;20430;-72
2022/07/16 00:29:27;;;;;;;3.58;0.52;;;20.10;67.30;;;;;;5074030;28;20020;-72
2022/07/16 00:31:54;;;;;;;2.75;0.68;;;20.10;67.40;;;;;;5073568;28;20507;-72
2022/07/16 00:34:20;;;;;;;2.05;0.60;;;20.10;67.30;;;;;;5073873;28;20056;-72
2022/07/16 00:36:46;;;;;;;1.40;0.65;;;20.10;67.80;;;;;;5073609;28;20020;-72
2022/07/16 00:39:12;;;;;;;1.80;0.80;;;20.10;68.10;;;;;;5073420;28;20150;-72
2022/07/16 00:41:39;;;;;;;2.70;0.45;;;20.10;68.10;;;;;;5073389;28;20061;-73
2022/07/16 00:44:08;;;;;;;2.53;0.70;;;20.10;68.10;;;;;;5073447;28;20498;-72
2022/07/16 00:46:38;;;;;;;0.90;0.50;;;20.10;68.40;;;;;;5073328;28;20028;-72
2022/07/16 00:49:04;;;;;;;2.55;1.00;;;20.20;68.50;;;;;;5073165;28;20486;-72
2022/07/16 00:51:31;;;;;;;1.73;0.85;;;20.20;68.90;;;;;;5072592;28;20083;-72
2022/07/16 00:53:57;;;;;;;1.17;0.60;;;20.10;68.70;;;;;;5073316;28;20044;-72
2022/07/16 00:56:23;;;;;;;2.63;0.60;;;20.00;69.20;;;;;;5073219;28;20024;-72
2022/07/16 00:58:49;;;;;;;2.63;0.85;;;20.00;69.50;;;;;;5073296;28;20031;-72
2022/07/16 01:01:15;;;;;;;2.08;1.10;;;19.90;70.00;;;;;;5073517;28;20024;-72
2022/07/16 01:03:43;;;;;;;5.60;1.45;;;19.90;70.10;;;;;;5073559;28;20021;-72
2022/07/16 01:06:10;;;;;;;2.55;1.17;;;19.90;70.60;;;;;;5073581;28;20024;-72
2022/07/16 01:08:38;;;;;;;2.03;1.10;;;19.80;70.50;;;;;;5073004;28;20024;-72
2022/07/16 01:11:05;;;;;;;2.22;1.17;;;19.80;70.80;;;;;;5073119;28;20111;-72
2022/07/16 01:13:32;;;;;;;3.25;1.30;;;19.80;71.10;;;;;;5073099;28;20028;-72
2022/07/16 01:15:57;;;;;;;2.88;1.00;;;19.70;71.10;;;;;;5073112;28;20468;-71
2022/07/16 01:18:23;;;;;;;2.30;1.00;;;19.70;71.30;;;;;;5073067;28;20028;-72
2022/07/16 01:20:49;;;;;;;1.65;0.85;;;19.70;71.50;;;;;;5073496;28;20027;-72
2022/07/16 01:23:23;;;;;;;2.78;0.90;;;19.70;71.40;;;;;;5073113;28;20469;-72
2022/07/16 01:25:49;;;;;;;2.38;1.10;;;19.70;71.40;;;;;;5073121;28;20070;-72
2022/07/16 01:28:14;;;;;;;1.88;1.00;;;19.70;71.50;;;;;;5073034;28;20499;-72
2022/07/16 01:30:41;;;;;;;1.80;0.80;;;19.80;71.60;;;;;;5072925;28;20391;-72
2022/07/16 01:33:32;;;;;;;4.18;1.00;;;19.70;72.10;;;;;;5073124;28;20044;-72
2022/07/16 01:36:00;;;;;;;2.80;0.80;;;19.80;72.00;;;;;;5073319;28;20027;-72
2022/07/16 01:38:27;;;;;;;1.55;0.80;;;19.70;72.70;;;;;;5072862;28;20063;-72
2022/07/16 01:40:53;;;;;;;2.30;0.88;;;19.70;72.20;;;;;;5072835;28;20029;-72
2022/07/16 01:43:25;;;;;;;3.75;1.00;;;19.70;72.30;;;;;;5073039;28;20430;-72
2022/07/16 01:45:52;;;;;;;1.48;0.60;;;19.80;72.30;;;;;;5073024;28;20095;-72
2022/07/16 01:48:18;;;;;;;4.60;0.82;;;19.80;72.30;;;;;;5072917;28;20472;-72
2022/07/16 01:50:44;;;;;;;4.55;0.80;;;19.80;72.30;;;;;;5072783;28;20116;-72
2022/07/16 01:53:12;;;;;;;3.72;0.93;;;19.70;72.20;;;;;;5072628;28;20036;-72
2022/07/16 01:55:38;;;;;;;4.00;1.10;;;19.70;72.20;;;;;;5072805;28;20024;-72
2022/07/16 01:58:06;;;;;;;3.38;0.80;;;19.80;72.40;;;;;;5072783;28;20035;-72
2022/07/16 02:00:33;;;;;;;3.25;0.82;;;19.70;72.50;;;;;;5072823;28;20411;-72
2022/07/16 02:02:59;;;;;;;2.53;0.80;;;19.70;72.90;;;;;;5075272;28;20024;-72
2022/07/16 02:05:25;;;;;;;3.25;0.93;;;19.70;73.40;;;;;;5076569;28;20052;-72
2022/07/16 02:07:51;;;;;;;4.50;1.13;;;19.70;73.80;;;;;;5076195;28;20099;-72
2022/07/16 02:10:17;;;;;;;2.35;0.80;;;19.70;74.00;;;;;;5076398;28;20515;-72
2022/07/16 02:12:43;;;;;;;4.40;0.90;;;19.70;73.70;;;;;;5076259;28;20028;-72
2022/07/16 02:15:09;;;;;;;4.68;1.60;;;19.70;73.80;;;;;;5076471;28;20017;-72
2022/07/16 02:17:35;;;;;;;3.90;1.30;;;19.70;73.70;;;;;;5076309;28;20099;-72
2022/07/16 02:20:04;;;;;;;2.50;0.90;;;19.70;74.00;;;;;;5076521;28;20383;-72
2022/07/16 02:22:30;;;;;;;4.05;0.80;;;19.60;74.00;;;;;;5075796;28;20020;-72
2022/07/16 02:24:55;;;;;;;3.30;1.13;;;19.60;74.10;;;;;;5076419;28;20081;-72
2022/07/16 02:27:21;;;;;;;3.30;0.90;;;19.60;74.10;;;;;;5076353;28;20085;-72
2022/07/16 02:29:46;;;;;;;5.90;0.80;;;19.60;74.10;;;;;;5076187;28;20032;-72
2022/07/16 02:32:12;;;;;;;3.42;0.95;;;19.60;74.00;;;;;;5075925;28;20406;-72
2022/07/16 02:34:38;;;;;;;2.58;0.70;;;19.60;74.20;;;;;;5076054;28;20107;-72
2022/07/16 02:37:04;;;;;;;3.50;0.68;;;19.60;74.40;;;;;;5075806;28;20211;-72
2022/07/16 02:39:29;;;;;;;2.35;0.82;;;19.50;74.40;;;;;;5075871;28;20025;-72
2022/07/16 02:41:55;;;;;;;2.92;0.88;;;19.50;74.50;;;;;;5076008;28;20028;-72
2022/07/16 02:44:20;;;;;;;1.98;0.80;;;19.50;74.80;;;;;;5076099;28;20048;-72
2022/07/16 02:46:46;;;;;;;3.67;0.95;;;19.50;74.90;;;;;;5075691;28;20036;-72
2022/07/16 02:49:11;;;;;;;2.88;0.75;;;19.50;75.70;;;;;;5075578;28;20028;-72
2022/07/16 02:51:37;;;;;;;5.07;1.10;;;19.40;75.30;;;;;;5075407;28;20075;-72
2022/07/16 02:54:04;;;;;;;5.93;1.00;;;19.40;75.50;;;;;;5075509;28;20028;-72
2022/07/16 02:56:30;;;;;;;4.22;1.30;;;19.40;75.70;;;;;;5075569;28;20047;-72
2022/07/16 02:58:56;;;;;;;3.63;0.80;;;19.40;75.90;;;;;;5075447;28;20028;-72
2022/07/16 03:01:21;;;;;;;3.63;1.23;;;19.40;76.50;;;;;;5075445;28;20024;-72
2022/07/16 03:03:47;;;;;;;2.42;0.70;;;19.40;76.10;;;;;;5075730;28;20021;-72
2022/07/16 03:06:13;;;;;;;4.47;0.98;;;19.40;76.40;;;;;;5075662;28;20028;-72
2022/07/16 03:08:38;;;;;;;2.28;0.70;;;19.40;76.40;;;;;;5075041;28;20017;-72
2022/07/16 03:11:04;;;;;;;4.43;1.10;;;19.30;76.50;;;;;;5075656;28;20028;-72
2022/07/16 03:13:29;;;;;;;3.22;1.20;;;19.30;76.60;;;;;;5074263;28;20037;-72
2022/07/16 03:15:55;;;;;;;4.57;1.05;;;19.30;77.00;;;;;;5075392;28;20020;-72
2022/07/16 03:18:21;;;;;;;3.95;1.20;;;19.30;77.30;;;;;;5075125;28;20055;-72
2022/07/16 03:20:47;;;;;;;7.38;1.05;;;19.30;77.10;;;;;;5074973;28;20070;-72
2022/07/16 03:23:13;;;;;;;2.78;1.23;;;19.20;77.50;;;;;;5075092;28;20021;-72
2022/07/16 03:25:38;;;;;;;3.85;1.50;;;19.20;77.80;;;;;;5075248;28;20472;-72
2022/07/16 03:28:04;;;;;;;5.68;1.42;;;19.20;78.00;;;;;;5074882;28;20028;-72
2022/07/16 03:30:30;;;;;;;3.00;1.27;;;19.20;78.40;;;;;;5074909;28;20020;-72
2022/07/16 03:32:57;;;;;;;2.95;1.00;;;19.10;78.30;;;;;;5074682;28;20078;-72
2022/07/16 03:35:23;;;;;;;3.30;1.40;;;19.10;78.50;;;;;;5075064;28;20052;-72
2022/07/16 03:40:33;;;;;;;3.08;1.38;;;19.20;78.90;;;;;;5074828;28;20054;-72
2022/07/16 03:42:59;;;;;;;6.22;2.00;;;19.20;78.80;;;;;;5074984;28;20025;-72
2022/07/16 03:45:25;;;;;;;5.15;2.10;;;19.20;79.40;;;;;;5074370;28;20020;-72
2022/07/16 03:47:51;;;;;;;3.58;1.63;;;19.20;79.80;;;;;;5074277;28;20468;-72
2022/07/16 03:50:17;;;;;;;7.75;1.80;;;19.10;79.80;;;;;;5074280;28;20048;-72
2022/07/16 03:52:43;;;;;;;3.05;1.85;;;19.10;80.00;;;;;;5074609;28;20041;-72
2022/07/16 03:55:08;;;;;;;4.72;2.10;;;19.10;80.30;;;;;;5074568;28;20479;-72
2022/07/16 03:57:34;;;;;;;6.60;1.90;;;19.10;80.50;;;;;;5074473;28;20025;-72
2022/07/16 03:59:59;;;;;;;5.35;1.70;;;19.10;80.60;;;;;;5074351;28;20020;-72
2022/07/16 04:02:25;;;;;;;3.10;1.92;;;19.10;80.70;;;;;;5074478;28;20107;-72
2022/07/16 04:04:51;;;;;;;3.22;1.30;;;19.10;81.20;;;;;;5074172;28;20028;-72
2022/07/16 04:07:16;;;;;;;4.38;1.80;;;19.10;80.90;;;;;;5074534;28;20108;-72
2022/07/16 04:09:42;;;;;;;6.85;2.13;;;19.10;81.10;;;;;;5074409;28;20444;-72
2022/07/16 04:12:07;;;;;;;4.30;2.38;;;19.10;81.70;;;;;;5074443;28;20025;-72
2022/07/16 04:14:33;;;;;;;6.18;2.20;;;19.10;82.00;;;;;;5073835;28;20444;-72
2022/07/16 04:16:58;;;;;;;5.22;2.03;;;19.10;82.00;;;;;;5074154;28;20025;-72
2022/07/16 04:19:24;;;;;;;3.92;2.35;;;19.10;82.00;;;;;;5074196;28;20525;-72
2022/07/16 04:21:50;;;;;;;4.15;2.20;;;19.10;82.40;;;;;;5074153;28;20020;-72
2022/07/16 04:24:15;;;;;;;5.45;2.42;;;19.00;82.70;;;;;;5073598;28;20020;-72
2022/07/16 04:26:41;;;;;;;8.63;1.75;;;19.00;83.20;;;;;;5074050;28;20028;-71
2022/07/16 04:29:06;;;;;;;5.22;2.10;;;19.00;83.70;;;;;;5073881;28;20107;-72
2022/07/16 04:31:32;;;;;;;2.65;1.30;;;18.90;84.00;;;;;;5073607;28;20062;-72
2022/07/16 04:33:57;;;;;;;2.13;1.65;;;18.90;84.50;;;;;;5073900;28;20076;-72
2022/07/16 04:36:23;;;;;;;2.97;1.55;;;18.90;85.00;;;;;;5073643;28;20349;-72
2022/07/16 04:38:48;;;;;;;6.05;1.88;;;18.90;85.20;;;;;;5073614;28;20048;-72
2022/07/16 04:41:14;;;;;;;3.78;1.67;;;18.90;85.30;;;;;;5073823;28;20036;-72
2022/07/16 04:43:40;;;;;;;2.92;1.10;;;18.90;85.30;;;;;;5073368;28;20397;-72
2022/07/16 04:46:05;;;;;;;3.00;1.17;;;19.00;85.10;;;;;;5073420;28;20024;-72
2022/07/16 04:48:31;;;;;;;4.43;1.00;;;19.10;85.00;;;;;;5073718;28;20027;-72
2022/07/16 04:50:57;;;;;;;3.67;1.48;;;19.10;84.80;;;;;;5073216;28;20059;-72
2022/07/16 04:53:22;;;;;;;2.58;0.90;;;19.20;84.90;;;;;;5073515;28;20141;-72
2022/07/16 04:55:49;;;;;;;3.10;1.00;;;19.20;85.20;;;;;;5073488;28;20041;-72
2022/07/16 04:58:14;;;;;;;4.32;1.23;;;19.20;85.20;;;;;;5073210;28;20032;-72
2022/07/16 05:00:40;;;;;;;4.00;0.80;;;19.30;85.40;;;;;;5073518;28;20032;-72
2022/07/16 05:03:07;;;;;;;2.50;0.75;;;19.30;85.20;;;;;;5073476;28;20031;-72
2022/07/16 05:05:37;;;;;;;2.63;0.90;;;19.40;85.20;;;;;;5073203;28;20074;-72
2022/07/16 05:08:05;;;;;;;4.47;1.10;;;19.40;85.40;;;;;;5073236;28;20107;-72
2022/07/16 05:10:31;;;;;;;2.70;0.73;;;19.40;85.70;;;;;;5073230;28;20433;-72
2022/07/16 05:12:57;;;;;;;3.60;1.42;;;19.50;86.30;;;;;;5072867;28;20032;-72
2022/07/16 05:15:23;;;;;;;5.10;1.20;;;19.50;85.80;;;;;;5073436;28;20028;-72
2022/07/16 05:17:48;;;;;;;2.75;0.85;;;19.60;86.00;;;;;;5073174;28;20544;-72
2022/07/16 05:20:14;;;;;;;3.97;0.93;;;19.60;85.80;;;;;;5073118;28;20035;-72
2022/07/16 05:22:41;;;;;;;2.78;0.80;;;19.70;86.00;;;;;;5073136;28;20029;-72
2022/07/16 05:25:08;;;;;;;2.75;0.93;;;19.70;85.80;;;;;;5073247;28;20052;-72
2022/07/16 05:27:34;;;;;;;4.28;1.00;;;19.70;86.00;;;;;;5073267;28;20025;-72
2022/07/16 05:30:00;;;;;;;3.22;0.70;;;19.60;86.60;;;;;;5073030;28;20024;-72
2022/07/16 05:32:26;;;;;;;3.80;1.17;;;19.60;86.50;;;;;;5073148;28;20468;-72
2022/07/16 05:34:51;;;;;;;3.10;1.65;;;19.60;86.70;;;;;;5073133;28;20078;-72
2022/07/16 05:37:17;;;;;;;7.57;1.90;;;19.70;87.30;;;;;;5074663;28;20020;-72
2022/07/16 05:39:42;;;;;;;4.35;1.65;;;19.50;88.60;;;;;;5076877;28;20464;-72
2022/07/16 05:42:08;;;;;;;3.33;1.75;;;19.40;89.60;;;;;;5077272;28;20021;-72
2022/07/16 05:44:34;;;;;;;6.30;1.63;;;19.20;90.20;;;;;;5077085;28;20023;-72
2022/07/16 05:46:59;;;;;;;5.20;1.45;;;19.20;90.70;;;;;;5076819;28;20055;-72
2022/07/16 05:49:25;;;;;;;6.28;1.58;;;19.10;90.60;;;;;;5076771;28;20060;-72
2022/07/16 05:51:50;;;;;;;5.07;1.60;;;19.10;90.80;;;;;;5076424;28;20139;-72
2022/07/16 05:54:16;;;;;;;6.05;1.20;;;19.10;90.80;;;;;;5076651;28;20037;-72
2022/07/16 05:56:42;;;;;;;3.50;1.20;;;19.20;90.80;;;;;;5076987;28;20024;-72
2022/07/16 05:59:07;;;;;;;2.50;0.80;;;19.30;90.80;;;;;;5076344;28;20031;-72
2022/07/16 06:01:33;;;;;;;2.53;0.50;;;19.40;90.70;;;;;;5076582;28;20021;-72
2022/07/16 06:03:59;;;;;;;3.00;0.70;;;19.50;90.40;;;;;;5076783;28;20054;-72
2022/07/16 06:06:24;;;;;;;2.45;0.47;;;19.60;90.20;;;;;;5076848;28;20021;-72
2022/07/16 06:08:50;;;;;;;2.00;0.63;;;19.60;90.00;;;;;;5076529;28;20482;-72
2022/07/16 06:11:15;;;;;;;2.75;0.75;;;19.70;89.50;;;;;;5075166;28;20104;-72
2022/07/16 06:13:41;;;;;;;6.18;0.75;;;19.70;88.80;;;;;;5076218;28;20040;-72
2022/07/16 06:16:08;;;;;;;1.85;0.50;;;19.70;87.30;;;;;;5076306;28;20055;-72
2022/07/16 06:18:35;;;;;;;2.97;0.50;;;19.70;87.20;;;;;;5076194;28;20398;-73
2022/07/16 06:21:01;;;;;;;2.58;0.65;;;19.70;87.40;;;;;;5076348;28;20032;-72
2022/07/16 06:23:27;;;;;;;2.85;0.50;;;19.70;87.10;;;;;;5076138;28;20024;-72
2022/07/16 06:25:52;;;;;;;3.35;0.52;;;19.90;86.70;;;;;;5076380;28;20033;-72
2022/07/16 06:28:18;;;;;;;4.70;0.40;;;19.80;86.70;;;;;;5076082;28;20388;-72
2022/07/16 06:30:43;;;;;;;3.90;0.52;;;19.90;86.50;;;;;;5075875;28;20035;-72
2022/07/16 06:33:09;;;;;;;2.38;0.47;;;20.00;85.00;;;;;;5076043;28;20303;-72
2022/07/16 06:35:35;;;;;;;2.10;0.45;;;20.00;84.40;;;;;;5075860;28;20032;-72
2022/07/16 06:38:03;;;;;;;3.28;0.50;;;20.00;84.10;;;;;;5075899;28;20028;-72
2022/07/16 06:40:29;;;;;;;5.25;0.85;;;20.00;83.90;;;;;;5075825;28;20025;-72
2022/07/16 06:42:55;;;;;;;2.80;0.60;;;20.20;84.10;;;;;;5075487;28;20032;-72
2022/07/16 06:45:20;;;;;;;2.10;0.50;;;20.20;83.00;;;;;;5075775;28;20107;-72
2022/07/16 06:47:46;;;;;;;2.15;0.43;;;20.20;83.10;;;;;;5075713;28;20048;-73
2022/07/16 06:50:12;;;;;;;3.47;0.50;;;20.20;81.70;;;;;;5074950;28;20071;-74
2022/07/16 06:52:38;;;;;;;5.57;0.30;;;20.30;80.40;;;;;;5075734;28;20032;-72
2022/07/16 06:55:04;;;;;;;5.25;0.65;;;20.30;79.80;;;;;;5075468;28;20421;-73
2022/07/16 06:57:29;;;;;;;2.22;0.50;;;20.30;80.20;;;;;;5075829;28;20421;-73
2022/07/16 06:59:55;;;;;;;2.15;0.30;;;20.40;80.20;;;;;;5075778;28;20024;-73
2022/07/16 07:02:21;;;;;;;2.65;0.40;;;20.50;79.20;;;;;;5075809;28;20052;-73
2022/07/16 07:04:47;;;;;;;3.55;0.52;;;20.60;78.80;;;;;;5075292;28;20055;-73
2022/07/16 07:07:12;;;;;;;4.20;0.40;;;20.70;78.10;;;;;;5075612;28;20376;-73
2022/07/16 07:09:38;;;;;;;3.63;0.40;;;20.90;76.90;;;;;;5075159;28;20024;-73
2022/07/16 07:12:04;;;;;;;3.92;0.45;;;21.00;75.00;;;;;;5075322;28;20027;-71
2022/07/16 07:14:30;;;;;;;3.08;0.50;;;21.10;74.10;;;;;;5075473;28;20083;-71
2022/07/16 07:16:56;;;;;;;2.92;0.50;;;21.00;73.90;;;;;;5074922;28;20467;-71
2022/07/16 07:19:21;;;;;;;4.13;0.30;;;21.00;73.10;;;;;;5075513;28;20031;-71
2022/07/16 07:21:47;;;;;;;1.65;0.20;;;21.00;74.10;;;;;;5075180;28;20031;-72
2022/07/16 07:24:12;;;;;;;3.08;0.43;;;21.00;72.40;;;;;;5075076;28;20111;-71
2022/07/16 07:26:38;;;;;;;2.33;0.30;;;21.10;72.30;;;;;;5075176;28;20028;-72
2022/07/16 07:29:04;;;;;;;2.17;0.25;;;21.10;70.60;;;;;;5074992;28;20020;-71
2022/07/16 07:31:29;;;;;;;1.92;0.30;;;21.10;70.40;;;;;;5075153;28;20487;-71
2022/07/16 07:33:55;;;;;;;2.13;0.30;;;21.20;69.40;;;;;;5075111;28;20384;-72
2022/07/16 07:36:20;;;;;;;2.25;0.47;;;21.10;67.90;;;;;;5075100;28;20096;-72
2022/07/16 07:38:46;;;;;;;2.42;0.40;;;20.90;68.60;;;;;;5074617;28;20467;-72
2022/07/16 07:41:11;;;;;;;3.60;0.30;;;20.80;68.30;;;;;;5074662;28;20051;-72
2022/07/16 07:43:37;;;;;;;2.80;0.30;;;20.80;68.50;;;;;;5074964;28;20040;-72
2022/07/16 07:46:03;;;;;;;3.65;0.60;;;21.00;68.60;;;;;;5074640;28;20095;-72
2022/07/16 07:48:28;;;;;;;4.43;0.40;;;21.10;67.40;;;;;;5074501;28;20036;-72
2022/07/16 07:50:54;;;;;;;1.55;0.20;;;21.10;66.70;;;;;;5074483;28;20407;-72
2022/07/16 07:53:19;;;;;;;1.05;0.25;;;21.10;66.80;;;;;;5074391;28;20066;-73
2022/07/16 07:55:45;;;;;;;2.97;0.20;;;21.20;66.90;;;;;;5074423;28;20035;-73
2022/07/16 07:58:10;;;;;;;2.90;0.30;;;21.30;66.50;;;;;;5074144;28;20108;-73
2022/07/16 08:00:36;;;;;;;3.13;0.47;;;21.40;65.90;;;;;;5074207;28;20035;-72
2022/07/16 08:03:02;;;;;;;1.20;0.20;;;21.60;65.70;;;;;;5074447;28;20025;-73
2022/07/16 08:05:28;;;;;;;3.75;0.50;;;21.70;65.00;;;;;;5074432;28;20524;-73
2022/07/16 08:07:53;;;;;;;3.15;0.40;;;21.70;65.00;;;;;;5074127;28;20021;-72
2022/07/16 08:10:19;;;;;;;1.45;0.32;;;21.70;64.50;;;;;;5073842;28;20028;-73
2022/07/16 08:12:45;;;;;;;1.42;0.20;;;21.70;64.50;;;;;;5073981;28;20020;-72
2022/07/16 08:15:11;;;;;;;6.03;0.45;;;21.70;64.50;;;;;;5074297;28;20025;-72
2022/07/16 08:17:39;;;;;;;2.45;0.35;;;21.80;64.00;;;;;;5074314;28;20032;-72
2022/07/16 08:20:05;;;;;;;2.45;0.30;;;21.90;64.10;;;;;;5074246;28;20025;-72
2022/07/16 08:22:31;;;;;;;2.15;0.20;;;22.00;62.90;;;;;;5073565;28;20031;-72
2022/07/16 08:27:40;;;;;;;3.70;0.30;;;22.20;62.80;;;;;;5073914;28;20031;-72
2022/07/16 08:30:07;;;;;;;2.65;0.40;;;22.10;62.30;;;;;;5074003;28;20032;-72
2022/07/16 08:32:32;;;;;;;1.75;0.20;;;22.10;63.20;;;;;;5073366;28;20548;-73
2022/07/16 08:34:58;;;;;;;2.40;0.30;;;22.20;63.50;;;;;;5073904;28;20063;-73
2022/07/16 08:37:37;;;;;;;3.65;0.30;;;22.40;62.10;;;;;;5073881;28;20380;-72
2022/07/16 08:40:10;;;;;;;4.82;0.40;;;22.50;61.70;;;;;;5073656;28;20024;-73
2022/07/16 08:42:36;;;;;;;2.03;0.35;;;22.50;61.40;;;;;;5073561;28;20027;-72
2022/07/16 08:45:04;;;;;;;1.70;0.30;;;22.60;62.40;;;;;;5073151;28;20039;-73
2022/07/16 08:47:31;;;;;;;1.17;0.20;;;22.50;62.30;;;;;;5073310;28;20031;-72
2022/07/16 08:50:02;;;;;;;2.83;0.30;;;22.50;62.50;;;;;;5073079;28;20380;-73
2022/07/16 08:52:29;;;;;;;3.13;0.20;;;22.60;61.80;;;;;;5073217;28;20035;-72
2022/07/16 08:54:56;;;;;;;2.58;0.30;;;22.60;62.00;;;;;;5073418;28;20024;-72
2022/07/16 08:57:23;;;;;;;2.13;0.25;;;22.60;61.50;;;;;;5073481;28;20025;-73
2022/07/16 08:59:52;;;;;;;3.65;0.30;;;22.60;61.00;;;;;;5073503;28;20028;-73
2022/07/16 09:02:19;;;;;;;2.70;0.68;;;22.70;60.60;;;;;;5073078;28;20111;-73
2022/07/16 09:04:45;;;;;;;1.98;0.30;;;22.60;60.60;;;;;;5073181;28;20036;-72
2022/07/16 09:07:15;;;;;;;2.42;0.30;;;22.50;59.80;;;;;;5073517;28;20020;-73
2022/07/16 09:09:41;;;;;;;4.15;0.30;;;22.50;59.70;;;;;;5073260;28;20017;-72
2022/07/16 09:12:07;;;;;;;2.00;0.30;;;22.50;59.70;;;;;;5072660;28;20032;-73
2022/07/16 09:14:33;;;;;;;3.25;0.30;;;22.70;60.40;;;;;;5072922;28;20032;-73
2022/07/16 09:17:00;;;;;;;2.28;0.32;;;22.80;58.50;;;;;;5072986;28;20039;-72
2022/07/16 09:19:28;;;;;;;2.10;0.30;;;22.90;58.60;;;;;;5073025;28;20464;-72
2022/07/16 09:22:00;;;;;;;4.80;0.40;;;22.90;58.80;;;;;;5073284;28;20399;-73
2022/07/16 09:24:40;;;;;;;2.85;0.30;;;22.80;57.70;;;;;;5073206;28;20040;-73
2022/07/16 09:27:10;;;;;;;3.80;0.30;;;22.70;57.40;;;;;;5072997;28;20098;-73
2022/07/16 09:29:48;;;;;;;3.40;0.20;;;22.60;56.50;;;;;;5072794;28;20028;-73
2022/07/16 09:32:36;;;;;;;1.00;0.20;;;22.40;57.20;;;;;;5073247;28;20024;-72
2022/07/16 09:35:13;;;;;;;3.75;0.30;;;22.50;56.60;;;;;;5073109;28;20044;-72
2022/07/16 09:37:48;;;;;;;1.38;0.20;;;22.70;57.60;;;;;;5072675;28;20110;-72
2022/07/16 09:40:15;;;;;;;1.55;0.25;;;23.00;56.70;;;;;;5073172;28;20024;-74
2022/07/16 09:42:41;;;;;;;1.23;0.20;;;23.20;56.80;;;;;;5073033;28;20025;-73
2022/07/16 09:45:18;;;;;;;2.15;0.32;;;23.20;55.10;;;;;;5073157;28;20024;-73
2022/07/16 09:47:43;;;;;;;2.88;0.52;;;23.20;55.20;;;;;;5072829;28;20063;-73
2022/07/16 09:50:09;;;;;;;5.63;0.20;;;23.20;54.00;;;;;;5072452;28;20064;-73
2022/07/16 09:52:35;;;;;;;1.20;0.17;;;23.30;55.00;;;;;;5072585;28;20036;-73
2022/07/16 09:55:02;;;;;;;3.17;0.20;;;23.40;53.90;;;;;;5073001;28;20035;-73
2022/07/16 09:57:28;;;;;;;3.90;0.50;;;23.40;54.20;;;;;;5072737;28;20103;-73
2022/07/16 09:59:56;;;;;;;1.27;0.30;;;23.60;54.50;;;;;;5072634;28;20112;-73
2022/07/16 10:02:22;;;;;;;2.63;0.20;;;23.80;53.20;;;;;;5072611;28;20024;-73
2022/07/16 10:04:48;;;;;;;2.85;0.20;;;23.90;52.70;;;;;;5072936;28;20028;-73
2022/07/16 10:07:16;;;;;;;3.08;0.30;;;24.10;52.70;;;;;;5072528;28;20028;-73
2022/07/16 10:09:42;;;;;;;3.30;0.38;;;24.00;53.30;;;;;;5072860;28;20024;-73
2022/07/16 10:12:11;;;;;;;2.80;0.95;;;23.80;52.90;;;;;;5072520;28;20096;-73
2022/07/16 10:14:42;;;;;;;4.13;0.20;;;23.60;53.50;;;;;;5072737;28;20395;-73
2022/07/16 10:17:15;;;;;;;3.25;0.13;;;23.60;52.60;;;;;;5072875;28;20033;-73
2022/07/16 10:19:42;;;;;;;1.90;0.30;;;23.60;52.20;;;;;;5072429;28;20024;-73
2022/07/16 10:22:41;;;;;;;5.43;0.38;;;23.50;53.00;;;;;;5072621;28;20024;-73
2022/07/16 10:25:13;;;;;;;3.03;0.22;;;23.40;53.60;;;;;;5053640;28;20032;-73
2022/07/16 10:27:39;;;;;;;1.10;0.20;;;23.40;53.80;;;;;;5076076;28;20024;-73
2022/07/16 10:30:13;;;;;;;1.73;0.22;;;23.60;54.70;;;;;;5076310;28;20031;-73
2022/07/16 10:33:02;;;;;;;2.97;0.40;;;23.80;53.50;;;;;;5076035;28;20029;-73
2022/07/16 10:35:47;;;;;;;1.60;0.15;;;23.90;52.20;;;;;;5076192;28;20096;-73
2022/07/16 10:38:22;;;;;;;2.20;0.30;;;23.90;51.70;;;;;;5075616;28;20375;-73
2022/07/16 10:41:20;;;;;;;2.92;0.38;;;23.90;52.00;;;;;;5076134;28;20426;-73
2022/07/16 10:44:12;;;;;;;4.28;0.30;;;24.00;52.70;;;;;;5075858;28;20495;-73
2022/07/16 10:46:54;;;;;;;3.03;0.35;;;24.10;53.30;;;;;;5076011;28;20437;-73
2022/07/16 10:49:21;;;;;;;3.28;0.30;;;24.20;51.30;;;;;;5075445;28;20036;-73
2022/07/16 10:52:03;;;;;;;2.13;0.20;;;24.10;51.40;;;;;;5075595;28;20083;-73
2022/07/16 10:54:31;;;;;;;3.53;0.20;;;24.10;52.70;;;;;;5075816;28;20064;-73
2022/07/16 10:56:59;;;;;;;3.45;0.20;;;23.90;52.20;;;;;;5075343;28;20104;-73
2022/07/16 10:59:33;;;;;;;3.28;0.28;;;24.10;53.60;;;;;;5075318;28;20025;-73
2022/07/16 11:02:03;;;;;;;5.28;0.45;;;24.30;52.00;;;;;;5075769;28;20405;-73
2022/07/16 11:04:31;;;;;;;4.65;0.30;;;24.10;52.00;;;;;;5075443;28;20021;-73
2022/07/16 11:06:57;;;;;;;2.22;0.20;;;24.10;52.20;;;;;;5075722;28;20032;-73
2022/07/16 11:09:34;;;;;;;3.10;0.30;;;24.20;52.80;;;;;;5075465;28;20027;-73
2022/07/16 11:12:09;;;;;;;2.42;0.30;;;24.20;52.40;;;;;;5075326;28;20027;-73
2022/07/16 11:14:35;;;;;;;3.03;0.30;;;24.40;52.90;;;;;;5075285;28;20040;-73
2022/07/16 11:17:01;;;;;;;4.60;0.20;;;24.60;52.30;;;;;;5075086;28;20445;-72
2022/07/16 11:19:27;;;;;;;3.67;0.40;;;24.60;52.80;;;;;;5074946;28;20035;-73
2022/07/16 11:21:55;;;;;;;4.00;0.50;;;24.50;51.90;;;;;;5074971;28;20028;-73
2022/07/16 11:24:21;;;;;;;2.78;0.38;;;24.40;52.60;;;;;;5075219;28;20025;-74
2022/07/16 11:26:48;;;;;;;2.05;0.30;;;24.40;53.00;;;;;;5075050;28;20028;-73
2022/07/16 11:29:14;;;;;;;1.98;0.28;;;24.60;51.80;;;;;;5074881;28;20435;-73
2022/07/16 11:31:39;;;;;;;2.47;0.20;;;24.90;52.40;;;;;;5074996;28;20024;-73
2022/07/16 11:34:08;;;;;;;2.75;0.30;;;25.00;50.60;;;;;;5074286;28;20120;-73
2022/07/16 11:36:41;;;;;;;4.80;0.30;;;25.10;51.90;;;;;;5074357;28;20064;-74
2022/07/16 11:39:09;;;;;;;3.28;0.43;;;25.20;50.80;;;;;;5074923;28;20031;-73
2022/07/16 11:41:38;;;;;;;4.20;0.32;;;25.00;50.70;;;;;;5074890;28;20431;-73
2022/07/16 11:44:15;;;;;;;6.45;0.60;;;25.00;50.20;;;;;;5074786;28;20021;-73
2022/07/16 11:46:42;;;;;;;2.05;0.20;;;24.90;49.60;;;;;;5074316;28;20032;-74
2022/07/16 11:49:07;;;;;;;3.15;0.20;;;24.90;50.40;;;;;;5074653;28;20032;-73
2022/07/16 11:51:38;;;;;;;3.53;0.20;;;25.00;50.00;;;;;;5074328;28;20395;-73
2022/07/16 11:54:03;;;;;;;3.78;0.30;;;25.00;50.30;;;;;;5074402;28;20452;-73
2022/07/16 11:56:37;;;;;;;4.88;0.30;;;24.90;51.00;;;;;;5074578;28;20100;-73
2022/07/16 11:59:27;;;;;;;4.03;0.50;;;24.80;51.20;;;;;;5074472;28;20082;-73
2022/07/16 12:02:03;;;;;;;2.47;0.20;;;24.90;50.40;;;;;;5074327;28;20024;-74
2022/07/16 12:04:42;;;;;;;2.67;0.20;;;25.10;49.40;;;;;;5074373;28;20035;-74
2022/07/16 12:07:16;;;;;;;2.00;0.20;;;25.40;49.60;;;;;;5074117;28;20425;-74
2022/07/16 12:09:45;;;;;;;3.70;0.13;;;25.50;49.70;;;;;;5074103;28;20036;-74
2022/07/16 12:12:24;;;;;;;3.33;0.30;;;25.60;49.90;;;;;;5074335;28;20021;-74
2022/07/16 12:14:51;;;;;;;4.22;0.50;;;25.70;49.80;;;;;;5073475;28;20522;-73
2022/07/16 12:17:39;;;;;;;3.03;0.45;;;25.60;49.80;;;;;;5074050;28;20044;-74
2022/07/16 12:20:17;;;;;;;1.77;0.15;;;25.20;50.80;;;;;;5074304;28;20353;-74
2022/07/16 12:23:12;;;;;;;3.75;0.40;;;25.20;50.60;;;;;;5074069;28;20047;-74
2022/07/16 12:25:41;;;;;;;2.53;0.30;;;25.40;49.50;;;;;;5072822;28;20503;-73
2022/07/16 12:28:11;;;;;;;7.07;0.63;;;25.40;49.80;;;;;;5073738;28;20078;-73
2022/07/16 12:30:37;;;;;;;1.35;0.10;;;25.30;49.30;;;;;;5073599;28;20522;-73
2022/07/16 12:33:06;;;;;;;2.63;0.20;;;25.00;49.50;;;;;;5073767;28;20056;-73
2022/07/16 12:35:37;;;;;;;4.53;0.20;;;25.00;49.80;;;;;;5073916;28;20073;-74
2022/07/16 12:38:04;;;;;;;3.37;0.40;;;25.10;49.60;;;;;;5073430;28;20025;-74
2022/07/16 12:40:29;;;;;;;6.57;0.20;;;25.20;48.40;;;;;;5073667;28;20070;-74
2022/07/16 12:42:55;;;;;;;4.22;0.30;;;25.40;48.40;;;;;;5073341;28;20020;-73
2022/07/16 12:45:21;;;;;;;1.75;0.20;;;25.50;48.50;;;;;;5073254;28;20029;-73
2022/07/16 12:47:46;;;;;;;1.33;0.25;;;25.60;46.70;;;;;;5072601;28;20029;-73
2022/07/16 12:50:12;;;;;;;2.65;0.20;;;25.60;47.40;;;;;;5072921;28;20040;-74
2022/07/16 12:52:38;;;;;;;2.17;0.45;;;25.70;47.70;;;;;;5073187;28;20166;-73
2022/07/16 13:00:33;;;;;;;2.13;0.40;;;26.20;47.40;;;;;;5073158;28;20162;-74
2022/07/16 13:02:59;;;;;;;2.80;0.20;;;26.20;47.30;;;;;;5072684;28;20475;-73